首页
METAR-TAF:

METAR-TAF

机场 :

Lakenheath, 英格兰

纬度: 52-25N, 经度: 000-34E, 海拔: 10米

当前天气观测

该预报发布于16分钟前的16:27 UTC
风速7节,风向西北
温度 9°C
湿度 76%
气压 995 hPa
能见度10公里或以上
少量云层高于2900英尺
少量云层高于3900英尺

METAR: EGUL 051627Z AUTO 31007KT 9999 FEW029 FEW039 09/05 A2938 RMK AO2 RAB07E27 SLP953 $

时间: 17:43 (16:43 UTC)

预报

该预报发布于26小时和43分钟前的14:00 UTC
预报有效从04日的 14点(UTC)到 05日的 20点(UTC)
风速12节,风向西北,有时为20节阵风
能见度10公里或以上
多云层高于3000英尺
成为
从 04日的 19点(UTC)到 04日的 20点(UTC)
风速12节,风向西转西南
能見度: 9000
多云层高于1000英尺
小阵雨
成为
从 05日的 08点(UTC)到 05日的 09点(UTC)
风速12节,风向西转西北,有时为20节阵风
能見度: 9000
多云层高于5000英尺
小阵雨
短暂存在
从 05日的 12点(UTC)到 05日的 18点(UTC)
风速15节,风向西转西北,有时为25节阵风
能見度: 0906

TAF: EGUL 041400Z 0414/0520 31012G20KT 9999 BKN030 QNH2948INS BECMG 0419/0420 25012KT 9000 -SHRA BKN010 QNH2932INS BECMG 0508/0509 29012G20KT 9000 -SHRA BKN050 QNH2930INS TEMPO 0512/0518 29015G25KT TX15/0415Z TN07/0505Z LAST NO AMDS AFT 0416 NEXT 0906

超过4000个机场的气象观测和天气预报(METAR&TAF报告)。

可查询的气象台以黄色和红色小点在地图上表示。

将鼠标移到小点上方,可查看气象台名称。

然后点击查看天气观测和预报。

如需切换地图:点击带黑十字的绿色按钮放大地图;点击带横线的绿色按钮缩小地图;或者点击绿色箭头查看邻近地区的地图。


METAR-TAF: